Rothschild, Wisconsin
Current Conditions -  °F | °C
As of 3:54 PM on Sunday 25 Jan 2015 (Local Time) from KAUW Reporting Station
Overcast Overcast  
Wind Chill: -10°   Ceiling: 12000
Heat Index: -7°   Visibility: 10mi
Dew Point: -14°   Wind: 5mph
Humidity: 55%   Direction: 50°NE
Pressure: 30"   Gusts: NA
Location:  44.89°N, 89.62°W
Report Text: KAUW 252154Z AUTO 05004KT 10SM OVC120 M07/M14 A3000 RMK AO2 SLP185 T10671144
Loading
Personal Weather Stations






























Interactive Weather Map New forecast layout! Learn more

10-Day Weather Forecast

Advertisements
Track Severe Weather on mobile